Dernières infos :  

21/06/2017  Mise à jour des tableaux d'analyses décadaires : rubrique climatologie
06/06/2017 Mise en ligne de la synthèse climatologique de Mai 2017 : 
CLIQUEZ ICI   

Si l'entête du tableau ne s'affiche pas correctement, => actualisez la page (F5 avec Internet Explorer, Chrome...).
Utilisez l'ascenseur sur la droite des lignes du tableau pour faire défiler verticalement les jours du mois.

TABLEAU DES DONNEES COMPLETES NOAA de JUILLET 2013

DATE TEMPERATURE
sous abri
TEMPARATURE 
au sol
VENT  et  Indice de Refroidissement Eolien  PRECIPITATIONS (en mm/m2)
et Intensité
PRESSION ATMOSPHERIQUE (en hPa) HUMIDITE de l'AIR RADIATIONS SOLAIRES (en W/m2)
Mini Moy. Maxi Mini Moy. Maxi Moyen Rafale I.R.E.
Minii
Précip. jour Cumul mois Intensité Maxi Mini Moy. Maxi Mini Moy. Maxi Pic maxi du jour Total jour
01/07/2013 10.1° 18.9° 26.7° 7.8° 22° 39.4° 0.8km/h dir NO 12.9km/h dir OSO 10.1° 0 0   1014.8 1017.5 1020.4 45% 72.7% 97% 902 93 534
02/07/2013 14.8° 20.5° 27.4° 12.2° 21.4° 37.8° 2.7km/h dir S 48.3km/h dir OSO 14.8° 11.6 11.6 55.2mm/h 1011.3 1014.6 1016 47% 74.8% 94% 1083 58 945
03/07/2013 14.8° 17.7° 21.6° 13.9° 17.7° 27.2° 2.6km/h dir S 25.7km/h dir SSE 14.8° 19.2 30.8 180mm/h 1011.6 1014.2 1017.9 82% 89.3% 95% 1060 17 448
04/07/2013 15.4° 18.4° 22.7° 12.2° 20.5° 37.2° 2.7km/h dir NO 20.9km/h dir NNO 15.5° 0 30.8   1018 1021.4 1024.7 56% 79.5% 96% 970 59 030
05/07/2013 13.7° 20° 25.3° 10.6° 22.8° 40° 6km/h dir N 29km/h dir N 13.7° 0 30.8   1023.9 1025 1025.9 58% 74.9% 96% 1143 91 599
06/07/2013 13.5° 20.2° 28.1° 10.6° 22.9° 40.6° 1.6km/h dir N 20.9km/h dir NNE 13.5° 0 30.8   1020.9 1022.7 1024.4 58% 80.5% 97% 1171 70 369
07/07/2013 15.4° 22.5° 29.1° 12.8° 25.4° 42.8° 3.4km/h dir N 27.4km/h dir N 15.4° 0 30.8   1019.9 1021.5 1022.5 50% 74.1% 96% 925 87 716
08/07/2013 16° 23.3° 30.2° 13.3° 26.3° 43.3° 1.4km/h dir N 17.7km/h dir N 16.1° 0 30.8   1018.8 1020.8 1022 52% 75.5% 96% 853 88 148
09/07/2013 17° 23.4° 29.6° 15° 26.6° 43.9° 1.6km/h dir N 19.3km/h dir NNO 17° 0 30.8   1015.4 1017.8 1019.6 49% 74.2% 96% 865 86 208
10/07/2013 19.3° 22.9° 28.8° 17.8° 25.5° 44.4° 1.1km/h dir NO 40.2km/h dir NE 19.3° 0.4 31.2   1011.6 1013.8 1015.5 59% 79.1% 91% 1076 65 757
11/07/2013 16.4° 21.8° 27.2° 13.9° 24.9° 40.6° 7.2km/h dir N 32.2km/h dir NNO 16.4° 0 31.2   1011.9 1013.1 1014.7 55% 75.2% 93% 875 85 190
12/07/2013 12.6° 20.4° 27.6° 10° 23.4° 42.8° 2.6km/h dir N 20.9km/h dir N 12.6° 0 31.2   1014.6 1015.8 1016.9 44% 69.4% 94% 863 88 174
13/07/2013 12.8° 20.6° 27.1° 10.6° 23.2° 40.6° 3.5km/h dir N 24.1km/h dir NNE 12.8° 0 31.2   1016.3 1017.2 1018.2 41% 67.6% 93% 835 85 764
14/07/2013 14.2° 21.6° 28.3° 10.6° 24.1° 40.6° 4.5km/h dir N 27.4km/h dir N 14.2° 0 31.2   1017.2 1018 1018.8 45% 67.9% 92% 817 83 604
15/07/2013 13.8° 22° 29.1° 11.1° 24.4° 42.8° 4.2km/h dir N 29km/h dir NNE 13.8° 0 31.2   1018.4 1019.1 1020.1 39% 65.7% 93% 856 85 273
16/07/2013 14.5° 22.3° 30° 12.2° 25.1° 43.3° 1.1km/h dir NO 16.1km/h dir N 14.5° 0 31.2   1017.4 1018.5 1019.6 38% 67.3% 92% 851 85 232
17/07/2013 15.3° 22.4° 29.3° 12.8° 24.4° 42.8° 1km/h dir NO 14.5km/h dir NNE 15.3° 0 31.2   1016.5 1018.1 1019.3 41% 71.2% 94% 1093 57 449
18/07/2013 18.6° 21.6° 25.2° 16.1° 22.6° 36.7° 1km/h dir O 17.7km/h dir NNE 18.7° 0.2 31.4   1016.3 1017.3 1018.4 66% 79.8% 92% 914 37 986
19/07/2013 17.2° 21.5° 28.4° 15° 24.1° 45.6° 1.3km/h dir E 20.9km/h dir ENE 17.2° 0 31.4   1015.4 1016.8 1017.8 57% 81.3% 96% 1060 56 579
20/07/2013 15.1° 23.3° 30.7° 12.8° 26.5° 45.6° 1.3km/h dir N 12.9km/h dir N 15.1° 0 31.4   1013.3 1015.2 1016.7 39% 68.2% 94% 844 81 930
21/07/2013 16.9° 25.1° 33.7° 14.4° 28° 47.2° 1.4km/h dir SSO 16.1km/h dir ENE 16.9° 0 31.4   1013.9 1015 1016.1 35% 68% 95% 835 84 357
22/07/2013 18.7° 26.1° 33.6° 16.1° 28° 46.1° 1.1km/h dir S 16.1km/h dir SSE 18.7° 0 31.4   1012.3 1014.3 1015.5 35% 67% 95% 833 78 011
23/07/2013 18.2° 25.3° 33.2° 15.6° 27° 43.3° 3.2km/h dir S 43.5km/h dir NO 18.2° 1.2 32.6 8.4mm/h 1010 1012.2 1014.8 40% 62.5% 87% 823 72 317
24/07/2013 17.2° 23.8° 30.9° 15.6° 26.5° 41.7° 1.3km/h dir OSO 20.9km/h dir OSO 17.2° 0.2 32.8 2mm/h 1013 1014.5 1015.8 46% 73.1% 96% 974 78 395
25/07/2013 18.4° 25.7° 32.8° 16.7° 28.4° 45.6° 0.6km/h dir NE 16.1km/h dir SO 18.5° 0 32.8   1012.6 1014.4 1015.9 44% 70.7% 95% 909 76 479
26/07/2013 21.3° 27.3° 33.9° 18.3° 28.7° 42.8° 5km/h dir S 40.2km/h dir SO 21.3° 0 32.8   1009.1 1011.3 1013.3 32% 56.5% 87% 1120 71 766
27/07/2013 22.9° 28.7° 35.5° 20.6° 30° 42.8° 6.3km/h dir S 48.3km/h dir SSO 22.9° 0 32.8   1003.8 1007.6 1010.4 26% 44.2% 62% 840 79 132
28/07/2013 18.4° 21.8° 26.7° 17.8° 22° 37.8° 3.9km/h dir N 37km/h dir OSO 17.8° 24.8 57.6 78.4mm/h 1007.6 1010.6 1014.9 41% 76.9% 97% 1136 25 403
29/07/2013 17.1° 19.2° 22.8° 14.4° 19.8° 32.8° 1.1km/h dir NO 19.3km/h dir NO 17.1° 8 65.6 80.6mm/h 1014.2 1017.8 1022 67% 86.9% 97% 740 34 398
30/07/2013 15.8° 20.8° 26.5° 13.9° 23.4° 40° 0.6km/h dir NO 14.5km/h dir OSO 15.8° 0 65.6   1021 1022.3 1023.4 50% 75.4% 95% 1292 68 881
31/07/2013 15.4° 22.5° 28.9° 13.9° 25.8° 42.8° 1.3km/h dir N 16.1km/h dir N 15.4° 0 65.6   1016 1019.3 1021.7 51% 74.3% 95% 846 80 887

RETOUR ACCUEIL


Date de création : 12/01/2014 : 15:25
Dernière modification : 09/02/2015 : 18:25
Catégorie : ARCHIVES 2002 à 2016 - ANNEES 2010 à 2019 - ANNEE 2013 - JUILLET 2013
Page lue 1690 fois


Réactions à cet article

Personne n'a encore laissé de commentaire.
Soyez donc le premier !